Time,TemperatureF,DewpointF,PressureIn,WindDirection,WindDirectionDegrees,WindSpeedMPH,WindSpeedGustMPH,Humidity,HourlyPrecipIn,Conditions,Clouds,dailyrainin,SoftwareType,DateUTC
2013-01-11 00:08:00,40.9,29.0,30.21,SE,140,3.0,5.0,63,0.00,,,0.00,weatherlink.com 1.10,2013-01-11 05:08:00,
2013-01-11 00:23:00,40.9,29.0,30.21,SE,139,3.0,6.0,62,0.00,,,0.00,weatherlink.com 1.10,2013-01-11 05:23:00,
2013-01-11 00:39:00,41.1,29.0,30.20,SE,145,4.0,6.0,62,0.00,,,0.00,weatherlink.com 1.10,2013-01-11 05:39:00,
2013-01-11 00:54:00,41.4,29.0,30.19,ESE,116,4.0,5.0,62,0.00,,,0.00,weatherlink.com 1.10,2013-01-11 05:54:00,
2013-01-11 01:09:00,41.6,29.0,30.18,SE,137,4.0,8.0,62,0.00,,,0.00,weatherlink.com 1.10,2013-01-11 06:09:00,
2013-01-11 01:24:00,41.9,30.0,30.17,SE,145,5.0,6.0,62,0.00,,,0.00,weatherlink.com 1.10,2013-01-11 06:24:00,
2013-01-11 01:39:00,42.1,29.0,30.16,SE,143,4.0,7.0,61,0.00,,,0.00,weatherlink.com 1.10,2013-01-11 06:39:00,
2013-01-11 01:57:00,42.3,30.0,30.16,SE,132,3.0,6.0,61,0.00,,,0.00,weatherlink.com 1.10,2013-01-11 06:57:00,
2013-01-11 02:09:00,42.3,30.0,30.17,SE,134,1.0,4.0,63,0.00,,,0.00,weatherlink.com 1.10,2013-01-11 07:09:00,
2013-01-11 02:24:00,42.4,30.0,30.16,SE,135,2.0,5.0,63,0.00,,,0.00,weatherlink.com 1.10,2013-01-11 07:24:00,
2013-01-11 02:39:00,42.8,31.0,30.16,SE,136,1.0,4.0,63,0.00,,,0.00,weatherlink.com 1.10,2013-01-11 07:39:00,
2013-01-11 02:54:00,43.1,31.0,30.14,ENE,72,2.0,5.0,63,0.00,,,0.00,weatherlink.com 1.10,2013-01-11 07:54:00,
2013-01-11 03:09:00,43.3,32.0,30.14,SE,132,3.0,6.0,64,0.00,,,0.00,weatherlink.com 1.10,2013-01-11 08:09:00,
2013-01-11 03:24:00,44.0,32.0,30.13,SE,139,2.0,5.0,64,0.00,,,0.00,weatherlink.com 1.10,2013-01-11 08:24:00,
2013-01-11 03:39:00,44.2,33.0,30.12,SSE,164,3.0,5.0,65,0.00,,,0.00,weatherlink.com 1.10,2013-01-11 08:39:00,
2013-01-11 03:54:00,44.3,33.0,30.11,SE,135,3.0,5.0,65,0.00,,,0.00,weatherlink.com 1.10,2013-01-11 08:54:00,
2013-01-11 04:09:00,44.5,33.0,30.10,SSE,154,2.0,5.0,65,0.00,,,0.00,weatherlink.com 1.10,2013-01-11 09:09:00,
2013-01-11 04:24:00,44.5,34.0,30.08,SE,127,3.0,5.0,67,0.00,,,0.00,weatherlink.com 1.10,2013-01-11 09:24:00,
2013-01-11 04:39:00,44.6,34.0,30.08,East,82,3.0,5.0,67,0.00,,,0.00,weatherlink.com 1.10,2013-01-11 09:39:00,
2013-01-11 04:54:00,44.2,37.0,30.07,SSE,152,1.0,4.0,77,0.01,,,0.01,weatherlink.com 1.10,2013-01-11 09:54:00,
2013-01-11 05:09:00,43.2,37.0,30.07,ESE,110,1.0,3.0,80,0.01,,,0.01,weatherlink.com 1.10,2013-01-11 10:09:00,
2013-01-11 05:24:00,44.0,38.0,30.06,SE,136,3.0,6.0,80,0.01,,,0.01,weatherlink.com 1.10,2013-01-11 10:24:00,
2013-01-11 05:39:00,45.6,39.0,30.05,SSE,153,3.0,7.0,77,0.01,,,0.01,weatherlink.com 1.10,2013-01-11 10:39:00,
2013-01-11 05:54:00,46.6,40.0,30.05,SSE,158,4.0,5.0,79,0.01,,,0.02,weatherlink.com 1.10,2013-01-11 10:54:00,
2013-01-11 06:09:00,45.6,41.0,30.04,SSE,154,4.0,6.0,85,0.05,,,0.06,weatherlink.com 1.10,2013-01-11 11:09:00,
2013-01-11 06:24:00,45.0,41.0,30.03,SE,144,4.0,7.0,87,0.05,,,0.06,weatherlink.com 1.10,2013-01-11 11:24:00,
2013-01-11 06:39:00,44.6,41.0,30.04,SE,135,2.0,6.0,88,0.06,,,0.07,weatherlink.com 1.10,2013-01-11 11:39:00,
2013-01-11 06:55:00,44.7,42.0,30.03,SSE,153,3.0,6.0,89,0.05,,,0.07,weatherlink.com 1.10,2013-01-11 11:55:00,
2013-01-11 07:10:00,44.7,41.0,30.02,South,170,4.0,7.0,88,0.01,,,0.07,weatherlink.com 1.10,2013-01-11 12:10:00,
2013-01-11 07:25:00,44.9,41.0,30.00,South,180,5.0,7.0,87,0.00,,,0.07,weatherlink.com 1.10,2013-01-11 12:25:00,
2013-01-11 07:40:00,45.2,42.0,30.00,SE,143,4.0,7.0,87,0.00,,,0.07,weatherlink.com 1.10,2013-01-11 12:40:00,
2013-01-11 07:55:00,45.7,42.0,29.99,SE,131,3.0,6.0,86,0.00,,,0.07,weatherlink.com 1.10,2013-01-11 12:55:00,
2013-01-11 08:10:00,46.1,42.0,30.00,SSE,159,2.0,10.0,85,0.00,,,0.07,weatherlink.com 1.10,2013-01-11 13:10:00,
2013-01-11 08:25:00,46.2,42.0,30.00,SE,136,2.0,7.0,85,0.00,,,0.07,weatherlink.com 1.10,2013-01-11 13:25:00,
2013-01-11 08:40:00,46.0,43.0,30.00,SE,129,2.0,5.0,89,0.04,,,0.11,weatherlink.com 1.10,2013-01-11 13:40:00,
2013-01-11 08:55:00,45.5,43.0,29.98,SE,138,3.0,5.0,92,0.18,,,0.25,weatherlink.com 1.10,2013-01-11 13:55:00,
2013-01-11 09:10:00,45.3,43.0,29.99,South,174,1.0,4.0,93,0.20,,,0.27,weatherlink.com 1.10,2013-01-11 14:10:00,
2013-01-11 09:25:00,45.4,44.0,29.98,SSW,198,2.0,6.0,94,0.22,,,0.29,weatherlink.com 1.10,2013-01-11 14:25:00,
2013-01-11 09:40:00,45.5,44.0,29.97,ESE,120,2.0,6.0,95,0.21,,,0.32,weatherlink.com 1.10,2013-01-11 14:40:00,
2013-01-11 09:55:00,45.4,44.0,29.98,SSE,157,2.0,5.0,94,0.10,,,0.35,weatherlink.com 1.10,2013-01-11 14:55:00,
2013-01-11 10:10:00,45.4,44.0,29.96,SE,143,1.0,4.0,95,0.13,,,0.40,weatherlink.com 1.10,2013-01-11 15:10:00,
2013-01-11 10:25:00,45.3,44.0,29.96,SE,124,2.0,6.0,95,0.18,,,0.47,weatherlink.com 1.10,2013-01-11 15:25:00,
2013-01-11 10:40:00,45.5,45.0,29.97,SW,218,0.0,3.0,96,0.23,,,0.55,weatherlink.com 1.10,2013-01-11 15:40:00,
2013-01-11 10:55:00,45.7,45.0,29.95,SE,139,1.0,5.0,96,0.22,,,0.57,weatherlink.com 1.10,2013-01-11 15:55:00,
2013-01-11 11:10:00,46.2,45.0,29.93,SSE,163,3.0,3.0,96,0.17,,,0.57,weatherlink.com 1.10,2013-01-11 16:10:00,
2013-01-11 11:25:00,47.0,46.0,29.93,SSE,156,2.0,4.0,97,0.11,,,0.58,weatherlink.com 1.10,2013-01-11 16:25:00,
2013-01-11 11:40:00,47.4,47.0,29.89,SE,139,5.0,6.0,97,0.04,,,0.59,weatherlink.com 1.10,2013-01-11 16:40:00,
2013-01-11 11:55:00,48.5,48.0,29.87,SSE,163,5.0,8.0,97,0.02,,,0.59,weatherlink.com 1.10,2013-01-11 16:55:00,
2013-01-11 12:10:00,49.0,48.0,29.84,SE,145,4.0,8.0,96,0.02,,,0.59,weatherlink.com 1.10,2013-01-11 17:10:00,
2013-01-11 12:25:00,49.7,49.0,29.84,SE,133,2.0,7.0,96,0.01,,,0.59,weatherlink.com 1.10,2013-01-11 17:25:00,
2013-01-11 12:40:00,51.1,50.0,29.85,South,189,2.0,9.0,96,0.00,,,0.59,weatherlink.com 1.10,2013-01-11 17:40:00,
2013-01-11 12:55:00,52.0,50.0,29.86,SSW,201,3.0,11.0,94,0.00,,,0.59,weatherlink.com 1.10,2013-01-11 17:55:00,
2013-01-11 13:10:00,52.3,50.0,29.87,WSW,237,2.0,9.0,93,0.00,,,0.59,weatherlink.com 1.10,2013-01-11 18:10:00,
2013-01-11 13:25:00,52.2,50.0,29.88,South,174,2.0,11.0,92,0.00,,,0.59,weatherlink.com 1.10,2013-01-11 18:25:00,
2013-01-11 13:40:00,52.0,50.0,29.88,SW,219,2.0,7.0,93,0.00,,,0.59,weatherlink.com 1.10,2013-01-11 18:40:00,
2013-01-11 13:55:00,52.0,50.0,29.88,South,191,1.0,6.0,93,0.00,,,0.59,weatherlink.com 1.10,2013-01-11 18:55:00,
2013-01-11 14:10:00,52.0,50.0,29.88,South,189,1.0,4.0,93,0.00,,,0.59,weatherlink.com 1.10,2013-01-11 19:10:00,
2013-01-11 14:25:00,52.0,50.0,29.89,South,189,1.0,6.0,93,0.00,,,0.59,weatherlink.com 1.10,2013-01-11 19:25:00,
2013-01-11 14:40:00,52.0,50.0,29.89,South,177,1.0,3.0,94,0.00,,,0.59,weatherlink.com 1.10,2013-01-11 19:40:00,
2013-01-11 14:55:00,52.4,51.0,29.89,SSW,212,0.0,5.0,94,0.00,,,0.59,weatherlink.com 1.10,2013-01-11 19:55:00,
2013-01-11 15:10:00,53.0,51.0,29.89,South,187,0.0,5.0,94,0.00,,,0.59,weatherlink.com 1.10,2013-01-11 20:10:00,
2013-01-11 15:25:00,53.7,52.0,29.89,SSW,203,0.0,5.0,92,0.00,,,0.59,weatherlink.com 1.10,2013-01-11 20:25:00,
2013-01-11 15:40:00,54.5,52.0,29.89,SW,233,2.0,5.0,90,0.00,,,0.59,weatherlink.com 1.10,2013-01-11 20:40:00,
2013-01-11 15:55:00,55.1,52.0,29.90,WSW,239,2.0,6.0,88,0.00,,,0.59,weatherlink.com 1.10,2013-01-11 20:55:00,
2013-01-11 16:10:00,55.4,51.0,29.90,SW,227,4.0,11.0,86,0.00,,,0.59,weatherlink.com 1.10,2013-01-11 21:10:00,
2013-01-11 16:25:00,55.3,51.0,29.90,South,184,1.0,9.0,86,0.00,,,0.59,weatherlink.com 1.10,2013-01-11 21:25:00,
2013-01-11 16:40:00,54.6,51.0,29.90,SW,222,0.0,5.0,87,0.00,,,0.59,weatherlink.com 1.10,2013-01-11 21:40:00,
2013-01-11 16:55:00,54.3,51.0,29.91,SW,227,2.0,6.0,87,0.00,,,0.59,weatherlink.com 1.10,2013-01-11 21:55:00,
2013-01-11 17:10:00,53.9,51.0,29.91,SW,236,0.0,4.0,88,0.00,,,0.59,weatherlink.com 1.10,2013-01-11 22:10:00,
2013-01-11 17:25:00,53.6,50.0,29.92,SW,235,0.0,2.0,88,0.00,,,0.59,weatherlink.com 1.10,2013-01-11 22:25:00,
2013-01-11 17:41:00,52.8,50.0,29.93,West,260,0.0,2.0,89,0.00,,,0.59,weatherlink.com 1.10,2013-01-11 22:41:00,
2013-01-11 17:56:00,52.7,50.0,29.93,SW,221,0.0,1.0,90,0.00,,,0.59,weatherlink.com 1.10,2013-01-11 22:56:00,
2013-01-11 18:11:00,52.6,50.0,29.94,SW,222,0.0,1.0,90,0.00,,,0.59,weatherlink.com 1.10,2013-01-11 23:11:00,
2013-01-11 18:26:00,52.4,50.0,29.94,SW,222,0.0,0.0,90,0.00,,,0.59,weatherlink.com 1.10,2013-01-11 23:26:00,
2013-01-11 18:41:00,52.2,50.0,29.95,SSW,206,0.0,0.0,91,0.00,,,0.59,weatherlink.com 1.10,2013-01-11 23:41:00,
2013-01-11 18:56:00,52.0,50.0,29.95,South,173,0.0,1.0,91,0.00,,,0.59,weatherlink.com 1.10,2013-01-11 23:56:00,
2013-01-11 19:11:00,51.8,49.0,29.95,South,177,0.0,2.0,91,0.00,,,0.59,weatherlink.com 1.10,2013-01-12 00:11:00,
2013-01-11 19:26:00,51.5,49.0,29.95,SW,217,0.0,4.0,92,0.00,,,0.59,weatherlink.com 1.10,2013-01-12 00:26:00,
2013-01-11 19:41:00,51.4,49.0,29.95,SSW,195,0.0,2.0,92,0.00,,,0.59,weatherlink.com 1.10,2013-01-12 00:41:00,
2013-01-11 19:56:00,50.9,49.0,29.95,South,180,0.0,2.0,92,0.00,,,0.59,weatherlink.com 1.10,2013-01-12 00:56:00,
2013-01-11 20:11:00,50.4,49.0,29.96,SW,225,0.0,2.0,93,0.00,,,0.59,weatherlink.com 1.10,2013-01-12 01:11:00,
2013-01-11 20:26:00,50.0,48.0,29.94,SW,225,0.0,0.0,93,0.00,,,0.59,weatherlink.com 1.10,2013-01-12 01:26:00,
2013-01-11 20:41:00,49.6,48.0,29.95,South,179,2.0,2.0,93,0.00,,,0.59,weatherlink.com 1.10,2013-01-12 01:41:00,
2013-01-11 20:56:00,49.3,47.0,29.96,SW,228,1.0,1.0,93,0.00,,,0.59,weatherlink.com 1.10,2013-01-12 01:56:00,
2013-01-11 21:11:00,49.3,48.0,29.96,South,169,0.0,1.0,94,0.00,,,0.59,weatherlink.com 1.10,2013-01-12 02:11:00,
2013-01-11 21:26:00,49.3,47.0,29.96,South,169,0.0,2.0,93,0.00,,,0.59,weatherlink.com 1.10,2013-01-12 02:26:00,
2013-01-11 21:41:00,49.1,47.0,29.95,SSE,168,0.0,2.0,93,0.00,,,0.59,weatherlink.com 1.10,2013-01-12 02:41:00,
2013-01-11 21:56:00,49.0,47.0,29.95,SSE,168,0.0,1.0,93,0.00,,,0.59,weatherlink.com 1.10,2013-01-12 02:56:00,
2013-01-11 22:11:00,49.0,47.0,29.95,SW,222,0.0,5.0,93,0.00,,,0.59,weatherlink.com 1.10,2013-01-12 03:11:00,
2013-01-11 22:26:00,49.2,47.0,29.94,SE,146,2.0,4.0,93,0.00,,,0.59,weatherlink.com 1.10,2013-01-12 03:26:00,
2013-01-11 22:41:00,49.2,47.0,29.94,SSE,156,0.0,2.0,93,0.00,,,0.59,weatherlink.com 1.10,2013-01-12 03:41:00,
2013-01-11 22:56:00,49.2,47.0,29.95,SSE,156,1.0,2.0,93,0.00,,,0.59,weatherlink.com 1.10,2013-01-12 03:56:00,
2013-01-11 23:11:00,49.6,48.0,29.94,SW,224,5.0,5.0,93,0.00,,,0.59,weatherlink.com 1.10,2013-01-12 04:11:00,
2013-01-11 23:26:00,49.9,48.0,29.94,SSE,162,1.0,5.0,92,0.00,,,0.59,weatherlink.com 1.10,2013-01-12 04:26:00,
2013-01-11 23:41:00,49.9,48.0,29.94,SE,144,1.0,2.0,92,0.00,,,0.59,weatherlink.com 1.10,2013-01-12 04:41:00,
2013-01-11 23:56:00,49.9,47.0,29.93,SE,145,0.0,1.0,91,0.00,,,0.59,weatherlink.com 1.10,2013-01-12 04:56:00,